JST418 YSSY-YBCG
Flight info
| Callsign | JST418 |
|---|---|
| Flight time | N/A |
| Altitude | 33000 |
| Route | KEVIN7/16L OLSEM Y193 BANDA Y43 GOMOL DCT |
| Aircraft | A320/M-SDE3FGHIRWY/LB1 |
Departure
| Time | 2026-05-05 10:47 |
|---|---|
| Airport | Sydney Kingsford Smith International Airport (YSSY) |
Arrival
| Time | N/A |
|---|---|
| Airport | Gold Coast Airport (YBCG) |
| Time | Latitude | Longitude | Altitude | Speed | Heading |
|---|---|---|---|---|---|
| 2026-05-05 10:08 | -33.93461 | 151.17693 | 29 ft | 0 kts | 99° |
| 2026-05-05 10:09 | -33.93463 | 151.17705 | 28 ft | 0 kts | 99° |
| 2026-05-05 10:34 | -33.93461 | 151.17693 | 30 ft | 4 kts | 99° |
| 2026-05-05 10:35 | -33.93457 | 151.17661 | 30 ft | 4 kts | 100° |
| 2026-05-05 10:35 | -33.93448 | 151.17619 | 30 ft | 4 kts | 117° |
| 2026-05-05 10:35 | -33.93439 | 151.17603 | 30 ft | 4 kts | 152° |
| 2026-05-05 10:35 | -33.93432 | 151.17599 | 30 ft | 0 kts | 172° |
| 2026-05-05 10:38 | -33.93441 | 151.17599 | 30 ft | 5 kts | 182° |
| 2026-05-05 10:38 | -33.93507 | 151.17590 | 30 ft | 12 kts | 171° |
| 2026-05-05 10:38 | -33.93597 | 151.17614 | 30 ft | 14 kts | 167° |
| 2026-05-05 10:39 | -33.93693 | 151.17666 | 30 ft | 16 kts | 153° |
| 2026-05-05 10:39 | -33.93806 | 151.17701 | 30 ft | 17 kts | 167° |
| 2026-05-05 10:39 | -33.93882 | 151.17773 | 29 ft | 14 kts | 156° |
| 2026-05-05 10:39 | -33.93985 | 151.17802 | 29 ft | 17 kts | 168° |
| 2026-05-05 10:40 | -33.94106 | 151.17832 | 29 ft | 18 kts | 168° |
| 2026-05-05 10:40 | -33.94221 | 151.17862 | 30 ft | 15 kts | 167° |
| 2026-05-05 10:40 | -33.94332 | 151.17892 | 30 ft | 17 kts | 167° |
| 2026-05-05 10:40 | -33.94446 | 151.17912 | 30 ft | 13 kts | 189° |
| 2026-05-05 10:41 | -33.94531 | 151.17882 | 30 ft | 14 kts | 170° |
| 2026-05-05 10:41 | -33.94630 | 151.17910 | 30 ft | 16 kts | 168° |
| 2026-05-05 10:41 | -33.94743 | 151.17938 | 30 ft | 17 kts | 166° |
| 2026-05-05 10:41 | -33.94867 | 151.17972 | 30 ft | 19 kts | 167° |
| 2026-05-05 10:42 | -33.95077 | 151.18030 | 30 ft | 11 kts | 152° |
| 2026-05-05 10:42 | -33.95098 | 151.18116 | 30 ft | 12 kts | 78° |
| 2026-05-05 10:42 | -33.95095 | 151.18133 | 30 ft | 1 kts | 78° |
| 2026-05-05 10:43 | -33.95089 | 151.18167 | 30 ft | 6 kts | 78° |
| 2026-05-05 10:43 | -33.95078 | 151.18228 | 30 ft | 8 kts | 77° |
| 2026-05-05 10:43 | -33.95064 | 151.18302 | 30 ft | 10 kts | 77° |
| 2026-05-05 10:43 | -33.95048 | 151.18390 | 30 ft | 12 kts | 78° |
| 2026-05-05 10:44 | -33.95043 | 151.18416 | 30 ft | 0 kts | 78° |
| 2026-05-05 10:44 | -33.95039 | 151.18443 | 30 ft | 9 kts | 78° |
| 2026-05-05 10:44 | -33.95022 | 151.18534 | 30 ft | 12 kts | 78° |
| 2026-05-05 10:45 | -33.95003 | 151.18642 | 30 ft | 14 kts | 78° |
| 2026-05-05 10:45 | -33.94990 | 151.18717 | 28 ft | 0 kts | 78° |
| 2026-05-05 10:45 | -33.94987 | 151.18730 | 28 ft | 4 kts | 78° |
| 2026-05-05 10:46 | -33.94984 | 151.18789 | 27 ft | 10 kts | 100° |
| 2026-05-05 10:46 | -33.95043 | 151.18849 | 24 ft | 13 kts | 165° |
| 2026-05-05 10:46 | -33.95136 | 151.18872 | 27 ft | 15 kts | 168° |
| 2026-05-05 10:46 | -33.95164 | 151.18880 | 24 ft | 0 kts | 167° |
| 2026-05-05 10:47 | -33.95317 | 151.18919 | 23 ft | 61 kts | 168° |
| 2026-05-05 10:47 | -33.95964 | 151.19086 | 28 ft | 126 kts | 168° |
| 2026-05-05 10:47 | -33.96997 | 151.19341 | 118 ft | 169 kts | 172° |
| 2026-05-05 10:47 | -33.98156 | 151.19645 | 798 ft | 172 kts | 166° |
| 2026-05-05 10:48 | -33.99244 | 151.20247 | 1567 ft | 174 kts | 145° |
| 2026-05-05 10:48 | -34.00024 | 151.21372 | 2320 ft | 179 kts | 121° |
| 2026-05-05 10:48 | -34.00572 | 151.22804 | 2699 ft | 199 kts | 118° |
| 2026-05-05 10:48 | -34.01233 | 151.24370 | 3049 ft | 221 kts | 127° |
| 2026-05-05 10:49 | -34.02285 | 151.25841 | 3431 ft | 243 kts | 137° |
| 2026-05-05 10:49 | -34.03553 | 151.27257 | 4091 ft | 253 kts | 140° |
| 2026-05-05 10:49 | -34.04920 | 151.28644 | 4795 ft | 261 kts | 142° |
| 2026-05-05 10:49 | -34.06337 | 151.30025 | 4984 ft | 262 kts | 143° |
| 2026-05-05 10:50 | -34.07764 | 151.31402 | 5036 ft | 263 kts | 142° |
| 2026-05-05 10:50 | -34.09190 | 151.32778 | 5040 ft | 261 kts | 143° |
| 2026-05-05 10:50 | -34.10583 | 151.34168 | 5274 ft | 268 kts | 138° |
| 2026-05-05 10:50 | -34.11602 | 151.36071 | 6095 ft | 278 kts | 110° |
| 2026-05-05 10:51 | -34.11799 | 151.38407 | 6853 ft | 288 kts | 82° |
| 2026-05-05 10:51 | -34.11037 | 151.40635 | 7568 ft | 292 kts | 52° |
| 2026-05-05 10:51 | -34.09689 | 151.42498 | 8321 ft | 296 kts | 46° |
| 2026-05-05 10:51 | -34.08291 | 151.44337 | 9124 ft | 299 kts | 46° |
| 2026-05-05 10:52 | -34.06774 | 151.46062 | 9883 ft | 301 kts | 34° |
| 2026-05-05 10:52 | -34.04943 | 151.47333 | 10387 ft | 312 kts | 20° |
| 2026-05-05 10:52 | -34.02801 | 151.48125 | 10551 ft | 333 kts | 12° |
| 2026-05-05 10:52 | -34.00483 | 151.48863 | 10668 ft | 356 kts | 12° |
| 2026-05-05 10:53 | -33.98037 | 151.49644 | 10991 ft | 369 kts | 13° |
| 2026-05-05 10:53 | -33.95532 | 151.50458 | 11548 ft | 375 kts | 13° |
| 2026-05-05 10:53 | -33.93000 | 151.51286 | 12159 ft | 379 kts | 13° |
| 2026-05-05 10:53 | -33.90443 | 151.52124 | 12764 ft | 383 kts | 13° |
| 2026-05-05 10:54 | -33.87899 | 151.52961 | 13349 ft | 386 kts | 13° |
| 2026-05-05 10:54 | -33.85292 | 151.53819 | 13945 ft | 390 kts | 14° |
| 2026-05-05 10:54 | -33.82652 | 151.54689 | 14475 ft | 394 kts | 13° |
| 2026-05-05 10:54 | -33.80000 | 151.55560 | 15029 ft | 396 kts | 13° |
| 2026-05-05 10:55 | -33.77334 | 151.56431 | 15564 ft | 398 kts | 13° |
| 2026-05-05 10:55 | -33.74651 | 151.57301 | 16094 ft | 400 kts | 13° |
| 2026-05-05 10:55 | -33.71958 | 151.58174 | 16665 ft | 402 kts | 13° |
| 2026-05-05 10:55 | -33.69257 | 151.59051 | 17220 ft | 403 kts | 13° |
| 2026-05-05 10:56 | -33.66544 | 151.59955 | 17763 ft | 406 kts | 16° |
| 2026-05-05 10:56 | -33.63926 | 151.61273 | 18305 ft | 411 kts | 26° |
| 2026-05-05 10:56 | -33.61482 | 151.63091 | 18805 ft | 415 kts | 32° |
| 2026-05-05 10:56 | -33.59066 | 151.65004 | 19286 ft | 417 kts | 31° |
| 2026-05-05 10:57 | -33.56637 | 151.66917 | 19754 ft | 420 kts | 31° |
| 2026-05-05 10:57 | -33.54183 | 151.68841 | 20210 ft | 422 kts | 31° |
| 2026-05-05 10:57 | -33.51743 | 151.70749 | 20670 ft | 425 kts | 30° |
| 2026-05-05 10:57 | -33.49137 | 151.72418 | 21102 ft | 424 kts | 20° |
| 2026-05-05 10:58 | -33.46350 | 151.73569 | 21526 ft | 424 kts | 12° |
| 2026-05-05 10:58 | -33.43494 | 151.74488 | 21949 ft | 426 kts | 12° |
| 2026-05-05 10:58 | -33.40615 | 151.75412 | 22369 ft | 428 kts | 11° |
| 2026-05-05 10:58 | -33.37724 | 151.76338 | 22783 ft | 430 kts | 11° |
| 2026-05-05 10:59 | -33.34821 | 151.77272 | 23183 ft | 433 kts | 11° |
| 2026-05-05 10:59 | -33.31908 | 151.78217 | 23595 ft | 434 kts | 11° |
| 2026-05-05 10:59 | -33.29023 | 151.79153 | 23963 ft | 436 kts | 11° |
| 2026-05-05 10:59 | -33.26085 | 151.80107 | 24312 ft | 437 kts | 11° |
| 2026-05-05 11:00 | -33.23150 | 151.81059 | 24671 ft | 438 kts | 10° |
| 2026-05-05 11:00 | -33.20204 | 151.82010 | 25033 ft | 439 kts | 10° |
| 2026-05-05 11:00 | -33.17253 | 151.82961 | 25395 ft | 440 kts | 9° |
| 2026-05-05 11:00 | -33.14293 | 151.83913 | 25754 ft | 441 kts | 9° |
| 2026-05-05 11:01 | -33.11327 | 151.84866 | 26103 ft | 442 kts | 9° |
| 2026-05-05 11:01 | -33.08355 | 151.85820 | 26466 ft | 442 kts | 9° |
| 2026-05-05 11:01 | -33.05383 | 151.86773 | 26884 ft | 441 kts | 8° |
| 2026-05-05 11:01 | -33.02427 | 151.87723 | 27406 ft | 438 kts | 8° |
| 2026-05-05 11:02 | -32.99490 | 151.88665 | 27929 ft | 435 kts | 8° |
| 2026-05-05 11:02 | -32.96575 | 151.89599 | 28457 ft | 433 kts | 8° |
| 2026-05-05 11:02 | -32.93668 | 151.90530 | 28989 ft | 430 kts | 7° |
| 2026-05-05 11:02 | -32.90790 | 151.91455 | 29522 ft | 427 kts | 7° |
| 2026-05-05 11:03 | -32.87930 | 151.92376 | 30015 ft | 425 kts | 7° |
| 2026-05-05 11:03 | -32.85084 | 151.93287 | 30487 ft | 423 kts | 7° |
| 2026-05-05 11:03 | -32.82251 | 151.94189 | 30927 ft | 420 kts | 6° |
| 2026-05-05 11:03 | -32.79432 | 151.95088 | 31369 ft | 418 kts | 6° |
| 2026-05-05 11:04 | -32.76632 | 151.95980 | 31795 ft | 416 kts | 6° |
| 2026-05-05 11:04 | -32.73866 | 151.96863 | 32213 ft | 415 kts | 6° |
| 2026-05-05 11:04 | -32.71084 | 151.97751 | 32639 ft | 413 kts | 6° |
| 2026-05-05 11:04 | -32.68311 | 151.98636 | 33051 ft | 412 kts | 5° |
| 2026-05-05 11:05 | -32.65540 | 151.99516 | 33178 ft | 414 kts | 5° |
| 2026-05-05 11:05 | -32.59876 | 152.01295 | 33195 ft | 426 kts | 6° |
| 2026-05-05 11:06 | -32.54128 | 152.03115 | 33198 ft | 428 kts | 6° |
| 2026-05-05 11:06 | -32.48371 | 152.04946 | 33199 ft | 428 kts | 6° |
| 2026-05-05 11:07 | -32.42605 | 152.06778 | 33202 ft | 428 kts | 6° |
| 2026-05-05 11:07 | -32.36849 | 152.08611 | 33201 ft | 428 kts | 6° |
| 2026-05-05 11:08 | -32.31094 | 152.10425 | 33202 ft | 428 kts | 5° |
| 2026-05-05 11:08 | -32.25367 | 152.12224 | 33201 ft | 428 kts | 6° |
| 2026-05-05 11:09 | -32.19618 | 152.14036 | 33178 ft | 427 kts | 5° |
| 2026-05-05 11:09 | -32.13870 | 152.15849 | 33193 ft | 427 kts | 5° |
| 2026-05-05 11:10 | -32.08131 | 152.17661 | 33198 ft | 427 kts | 5° |
| 2026-05-05 11:10 | -32.02393 | 152.19462 | 33198 ft | 427 kts | 5° |
| 2026-05-05 11:11 | -31.96651 | 152.21253 | 33194 ft | 426 kts | 5° |
| 2026-05-05 11:11 | -31.90931 | 152.23042 | 33215 ft | 425 kts | 5° |
| 2026-05-05 11:12 | -31.85218 | 152.24824 | 33218 ft | 425 kts | 5° |
| 2026-05-05 11:12 | -31.79508 | 152.26602 | 33211 ft | 424 kts | 5° |
| 2026-05-05 11:13 | -31.73836 | 152.28371 | 33204 ft | 424 kts | 4° |
| 2026-05-05 11:13 | -31.68138 | 152.30144 | 33215 ft | 423 kts | 5° |
| 2026-05-05 11:14 | -31.62443 | 152.31919 | 33215 ft | 422 kts | 4° |
| 2026-05-05 11:14 | -31.56758 | 152.33690 | 33214 ft | 422 kts | 4° |
| 2026-05-05 11:15 | -31.51079 | 152.35455 | 33196 ft | 423 kts | 5° |
| 2026-05-05 11:15 | -31.45382 | 152.37212 | 33193 ft | 424 kts | 5° |
| 2026-05-05 11:16 | -31.39676 | 152.38976 | 33202 ft | 424 kts | 5° |
| 2026-05-05 11:16 | -31.33964 | 152.40747 | 33203 ft | 425 kts | 5° |
| 2026-05-05 11:17 | -31.28242 | 152.42501 | 33173 ft | 427 kts | 6° |
| 2026-05-05 11:17 | -31.22493 | 152.44263 | 33168 ft | 431 kts | 6° |
| 2026-05-05 11:18 | -31.16679 | 152.46063 | 33165 ft | 432 kts | 6° |
| 2026-05-05 11:18 | -31.10847 | 152.47868 | 33180 ft | 434 kts | 6° |
| 2026-05-05 11:19 | -31.04990 | 152.49660 | 33168 ft | 437 kts | 6° |
| 2026-05-05 11:19 | -31.00077 | 152.51161 | 33168 ft | 440 kts | 7° |
| 2026-05-05 11:20 | -30.93173 | 152.53281 | 33175 ft | 442 kts | 6° |
| 2026-05-05 11:20 | -30.87196 | 152.55117 | 33165 ft | 445 kts | 6° |
| 2026-05-05 11:21 | -30.82163 | 152.56655 | 33163 ft | 447 kts | 5° |
| 2026-05-05 11:21 | -30.76254 | 152.59033 | 33176 ft | 456 kts | 12° |
| 2026-05-05 11:22 | -30.70347 | 152.61780 | 33189 ft | 456 kts | 12° |
| 2026-05-05 11:22 | -30.64440 | 152.64524 | 33199 ft | 457 kts | 12° |
| 2026-05-05 11:23 | -30.58543 | 152.67257 | 33170 ft | 456 kts | 12° |
| 2026-05-05 11:23 | -30.52653 | 152.69981 | 33179 ft | 455 kts | 12° |
| 2026-05-05 11:24 | -30.46763 | 152.72691 | 33192 ft | 456 kts | 12° |
| 2026-05-05 11:24 | -30.40909 | 152.75389 | 33197 ft | 455 kts | 12° |
| 2026-05-05 11:25 | -30.35016 | 152.78098 | 33196 ft | 454 kts | 12° |
| 2026-05-05 11:25 | -30.29144 | 152.80801 | 33194 ft | 454 kts | 12° |
| 2026-05-05 11:26 | -30.23268 | 152.83499 | 33184 ft | 454 kts | 12° |
| 2026-05-05 11:26 | -30.17387 | 152.86191 | 33141 ft | 454 kts | 12° |
| 2026-05-05 11:27 | -30.11527 | 152.88876 | 33195 ft | 452 kts | 12° |
| 2026-05-05 11:27 | -30.05698 | 152.91550 | 33200 ft | 449 kts | 11° |
| 2026-05-05 11:28 | -29.99944 | 152.94179 | 33199 ft | 447 kts | 12° |
| 2026-05-05 11:28 | -29.94157 | 152.96817 | 33164 ft | 447 kts | 11° |
| 2026-05-05 11:29 | -29.88391 | 152.99443 | 33188 ft | 444 kts | 11° |
| 2026-05-05 11:29 | -29.82654 | 153.02056 | 33191 ft | 443 kts | 11° |
| 2026-05-05 11:30 | -29.76930 | 153.04657 | 33186 ft | 441 kts | 11° |
| 2026-05-05 11:30 | -29.71223 | 153.07249 | 33184 ft | 440 kts | 11° |
| 2026-05-05 11:31 | -29.65533 | 153.09832 | 33183 ft | 438 kts | 10° |
| 2026-05-05 11:31 | -29.59873 | 153.12392 | 33186 ft | 436 kts | 10° |
| 2026-05-05 11:32 | -29.54230 | 153.14934 | 33168 ft | 435 kts | 10° |
| 2026-05-05 11:32 | -29.48590 | 153.17474 | 33163 ft | 435 kts | 10° |
| 2026-05-05 11:33 | -29.43003 | 153.20003 | 33159 ft | 434 kts | 10° |
| 2026-05-05 11:33 | -29.37439 | 153.22525 | 32859 ft | 424 kts | 10° |
| 2026-05-05 11:33 | -29.34658 | 153.23772 | 31574 ft | 436 kts | 10° |
| 2026-05-05 11:34 | -29.31780 | 153.25041 | 30367 ft | 449 kts | 10° |
| 2026-05-05 11:34 | -29.28847 | 153.26339 | 29309 ft | 454 kts | 11° |
| 2026-05-05 11:34 | -29.25903 | 153.27662 | 28293 ft | 456 kts | 12° |
| 2026-05-05 11:34 | -29.22934 | 153.29007 | 27218 ft | 460 kts | 13° |
| 2026-05-05 11:35 | -29.19945 | 153.30361 | 26102 ft | 464 kts | 14° |
| 2026-05-05 11:35 | -29.16936 | 153.31719 | 25341 ft | 462 kts | 15° |
| 2026-05-05 11:35 | -29.14000 | 153.33044 | 24599 ft | 458 kts | 15° |
| 2026-05-05 11:35 | -29.11044 | 153.34374 | 23830 ft | 455 kts | 16° |
| 2026-05-05 11:36 | -29.08099 | 153.35695 | 22973 ft | 452 kts | 16° |
| 2026-05-05 11:36 | -29.05187 | 153.36997 | 22230 ft | 446 kts | 16° |
| 2026-05-05 11:36 | -29.02314 | 153.38280 | 21482 ft | 441 kts | 16° |
| 2026-05-05 11:36 | -28.99466 | 153.39551 | 20722 ft | 437 kts | 16° |
| 2026-05-05 11:37 | -28.96648 | 153.40811 | 20020 ft | 432 kts | 16° |
| 2026-05-05 11:37 | -28.93864 | 153.42055 | 19299 ft | 428 kts | 17° |
| 2026-05-05 11:37 | -28.91101 | 153.43287 | 18596 ft | 423 kts | 17° |
| 2026-05-05 11:37 | -28.88367 | 153.44504 | 17859 ft | 418 kts | 17° |
| 2026-05-05 11:38 | -28.85676 | 153.45701 | 17214 ft | 412 kts | 17° |
| 2026-05-05 11:38 | -28.83057 | 153.46865 | 16600 ft | 407 kts | 18° |
| 2026-05-05 11:38 | -28.80428 | 153.48034 | 15983 ft | 403 kts | 18° |
| 2026-05-05 11:38 | -28.77828 | 153.49193 | 15380 ft | 399 kts | 19° |
| 2026-05-05 11:39 | -28.75251 | 153.50341 | 14773 ft | 396 kts | 19° |
| 2026-05-05 11:39 | -28.72692 | 153.51480 | 14177 ft | 393 kts | 20° |
| 2026-05-05 11:39 | -28.70153 | 153.52608 | 13512 ft | 390 kts | 20° |
| 2026-05-05 11:39 | -28.67634 | 153.53726 | 12874 ft | 387 kts | 20° |
| 2026-05-05 11:40 | -28.65142 | 153.54834 | 12244 ft | 383 kts | 20° |
| 2026-05-05 11:40 | -28.62668 | 153.55931 | 11591 ft | 381 kts | 21° |
| 2026-05-05 11:40 | -28.60210 | 153.57018 | 11161 ft | 373 kts | 21° |
| 2026-05-05 11:40 | -28.57844 | 153.58062 | 11038 ft | 357 kts | 21° |
| 2026-05-05 11:41 | -28.55578 | 153.59062 | 10919 ft | 343 kts | 21° |
| 2026-05-05 11:41 | -28.53388 | 153.60018 | 10798 ft | 330 kts | 18° |
| 2026-05-05 11:41 | -28.51193 | 153.60615 | 10679 ft | 319 kts | 7° |
| 2026-05-05 11:41 | -28.49053 | 153.60943 | 10555 ft | 309 kts | 7° |
| 2026-05-05 11:42 | -28.46944 | 153.61269 | 10375 ft | 302 kts | 7° |
| 2026-05-05 11:42 | -28.44868 | 153.61591 | 10274 ft | 302 kts | 7° |
| 2026-05-05 11:42 | -28.42793 | 153.61912 | 10053 ft | 300 kts | 7° |
| 2026-05-05 11:42 | -28.40710 | 153.62235 | 9643 ft | 306 kts | 8° |
| 2026-05-05 11:43 | -28.38601 | 153.62563 | 9325 ft | 303 kts | 8° |
| 2026-05-05 11:43 | -28.36512 | 153.62886 | 8986 ft | 302 kts | 8° |
| 2026-05-05 11:43 | -28.34435 | 153.63206 | 8644 ft | 301 kts | 8° |
| 2026-05-05 11:43 | -28.32364 | 153.63521 | 8307 ft | 299 kts | 6° |
| 2026-05-05 11:44 | -28.30289 | 153.63515 | 7982 ft | 298 kts | 355° |
| 2026-05-05 11:44 | -28.28228 | 153.63325 | 7647 ft | 297 kts | 355° |
| 2026-05-05 11:44 | -28.26172 | 153.63138 | 7327 ft | 296 kts | 355° |
| 2026-05-05 11:44 | -28.24128 | 153.62957 | 7013 ft | 294 kts | 355° |
| 2026-05-05 11:45 | -28.22089 | 153.62776 | 6590 ft | 297 kts | 355° |
| 2026-05-05 11:45 | -28.19971 | 153.62585 | 5775 ft | 312 kts | 355° |
| 2026-05-05 11:45 | -28.17758 | 153.62385 | 5037 ft | 324 kts | 355° |
| 2026-05-05 11:45 | -28.15567 | 153.61976 | 4781 ft | 315 kts | 340° |
| 2026-05-05 11:46 | -28.13698 | 153.60752 | 4397 ft | 311 kts | 321° |
| 2026-05-05 11:46 | -28.11997 | 153.59228 | 3946 ft | 311 kts | 321° |
| 2026-05-05 11:46 | -28.10317 | 153.57684 | 3534 ft | 311 kts | 320° |
| 2026-05-05 11:46 | -28.08695 | 153.56081 | 3144 ft | 308 kts | 311° |
| 2026-05-05 11:47 | -28.07626 | 153.54116 | 3186 ft | 285 kts | 290° |
| 2026-05-05 11:47 | -28.07193 | 153.52050 | 3375 ft | 258 kts | 272° |
| 2026-05-05 11:47 | -28.07297 | 153.50080 | 3142 ft | 245 kts | 254° |
| 2026-05-05 11:47 | -28.08067 | 153.48422 | 2651 ft | 236 kts | 222° |
| 2026-05-05 11:48 | -28.10873 | 153.47340 | 1975 ft | 195 kts | 171° |
| 2026-05-05 11:48 | -28.12093 | 153.47816 | 1557 ft | 181 kts | 150° |
| 2026-05-05 11:48 | -28.13147 | 153.48531 | 758 ft | 176 kts | 150° |
| 2026-05-05 11:49 | -28.14203 | 153.49178 | 333 ft | 164 kts | 154° |
| 2026-05-05 11:49 | -28.15173 | 153.49775 | 160 ft | 155 kts | 154° |
| 2026-05-05 11:49 | -28.16104 | 153.50368 | 29 ft | 145 kts | 152° |
| 2026-05-05 11:49 | -28.16842 | 153.50827 | 28 ft | 100 kts | 151° |